Merion Station, Pennsylvania
Current Conditions -  °F | °C
As of 1:18 PM on Monday 26 Jan 2015 (Local Time) from KPHL Reporting Station
Light Snow Light Snow  
Wind Chill: 17°   Ceiling: 1500
Heat Index: 30°   Visibility: 4mi
Dew Point: 24°   Wind: 23mph
Humidity: 79%   Direction: 40°NE
Pressure: 29.81"   Gusts: 28mph
Location:  40°N, 75.25°W
Report Text: KPHL 261818Z 04020G24KT 4SM -SN BKN015 OVC029 M01/M04 A2981 RMK AO2 P0000 T10111044
Loading
Personal Weather Stations






























Interactive Weather Map New forecast layout! Learn more

10-Day Weather Forecast

Advertisements
Track Severe Weather on mobile